Time;durP1;ratioP1;P1;durP2;ratioP2;P2;SDS_P1;SDS_P2;PMS_P1;PMS_P2;Temp;Humidity;BMP_temperature;BMP_pressure;BME280_temperature;BME280_humidity;BME280_pressure;Samples;Min_cycle;Max_cycle;Signal;HPM_P1;HPM_P2
2022/04/28 00:00:50;;;;;;;9.70;5.00;;;10.20;58.10;;;;;;2374958;56;21019;-76
2022/04/28 00:03:17;;;;;;;11.75;5.90;;;10.20;58.10;;;;;;2374574;56;21054;-77
2022/04/28 00:05:45;;;;;;;9.48;5.00;;;10.20;58.90;;;;;;2627655;52;21604;-76
2022/04/28 00:08:12;;;;;;;15.23;5.60;;;10.20;58.30;;;;;;2374408;56;21106;-76
2022/04/28 00:10:40;;;;;;;13.75;6.50;;;10.10;58.30;;;;;;2374875;56;21039;-76
2022/04/28 00:15:43;;;;;;;11.40;5.97;;;10.10;58.20;;;;;;2335520;56;27847;-76
2022/04/28 00:18:10;;;;;;;8.57;5.20;;;9.40;60.40;;;;;;2374607;56;21090;-76
2022/04/28 00:20:38;;;;;;;9.05;5.03;;;9.70;59.80;;;;;;2628360;52;21106;-77
2022/04/28 00:23:05;;;;;;;10.65;5.18;;;9.80;59.20;;;;;;2374489;56;21015;-76
2022/04/28 00:25:32;;;;;;;11.63;5.20;;;9.90;58.90;;;;;;2374332;56;21035;-76
2022/04/28 00:27:59;;;;;;;13.50;5.00;;;9.90;58.70;;;;;;2374243;56;21039;-75
2022/04/28 00:30:27;;;;;;;11.63;5.10;;;9.90;58.60;;;;;;2628498;52;21141;-76
2022/04/28 00:32:54;;;;;;;14.60;5.30;;;9.80;58.60;;;;;;2374966;56;21617;-76
2022/04/28 00:35:23;;;;;;;10.60;5.40;;;9.80;58.60;;;;;;2374827;56;21047;-76
2022/04/28 00:37:50;;;;;;;11.98;5.25;;;9.80;58.50;;;;;;2375121;56;21528;-77
2022/04/28 00:40:18;;;;;;;13.35;5.37;;;9.80;58.40;;;;;;2375428;56;21102;-76
2022/04/28 00:42:45;;;;;;;12.02;5.37;;;9.80;58.40;;;;;;2374375;56;21106;-77
2022/04/28 00:45:12;;;;;;;11.77;5.60;;;9.70;58.30;;;;;;2374898;56;21026;-76
2022/04/28 00:50:41;;;;;;;12.05;5.87;;;9.70;58.40;;;;;;2375239;56;21051;-76
2022/04/28 00:53:12;;;;;;;9.77;4.75;;;9.70;58.40;;;;;;2375228;56;21596;-76
2022/04/28 00:55:40;;;;;;;9.77;5.65;;;9.60;58.60;;;;;;2374999;56;21054;-76
2022/04/28 00:58:07;;;;;;;6.90;4.85;;;9.60;58.80;;;;;;2375101;56;21050;-76
2022/04/28 01:00:34;;;;;;;8.80;5.55;;;9.50;58.90;;;;;;2374324;56;21101;-76
2022/04/28 01:03:02;;;;;;;9.85;5.65;;;9.40;59.10;;;;;;2374853;56;21294;-76
2022/04/28 01:05:29;;;;;;;10.45;5.30;;;9.40;59.20;;;;;;2373899;56;21130;-76
2022/04/28 01:07:57;;;;;;;14.68;5.90;;;9.40;59.20;;;;;;2374674;56;21038;-76
2022/04/28 01:10:24;;;;;;;12.45;5.93;;;9.40;59.30;;;;;;2375138;56;21101;-76
2022/04/28 01:12:51;;;;;;;12.00;5.45;;;9.40;59.40;;;;;;2375078;56;21038;-74
2022/04/28 01:15:19;;;;;;;11.88;5.12;;;9.40;59.30;;;;;;2628344;52;21047;-77
2022/04/28 01:17:46;;;;;;;13.60;5.62;;;9.30;59.30;;;;;;2374704;56;21066;-76
2022/04/28 01:20:13;;;;;;;15.88;5.18;;;9.30;59.30;;;;;;2374791;56;21116;-75
2022/04/28 01:22:41;;;;;;;9.60;4.80;;;9.30;59.20;;;;;;2628198;52;21137;-74
2022/04/28 01:25:11;;;;;;;11.00;5.07;;;9.30;59.30;;;;;;2374618;56;21086;-75
2022/04/28 01:27:39;;;;;;;13.25;5.85;;;9.30;59.20;;;;;;2626843;52;21094;-74
2022/04/28 01:30:13;;;;;;;12.13;4.75;;;9.20;59.10;;;;;;2374020;56;21027;-74
2022/04/28 01:32:41;;;;;;;13.60;5.68;;;9.20;59.00;;;;;;2373640;56;21114;-74
2022/04/28 01:35:09;;;;;;;12.50;6.22;;;9.20;58.90;;;;;;2373122;56;21114;-75
2022/04/28 01:37:37;;;;;;;11.55;5.15;;;9.20;58.90;;;;;;2373120;56;21063;-74
2022/04/28 01:40:08;;;;;;;14.57;5.75;;;9.10;58.90;;;;;;2372905;56;21146;-74
2022/04/28 01:42:36;;;;;;;11.50;5.22;;;9.10;59.00;;;;;;2373578;56;21039;-74
2022/04/28 01:45:06;;;;;;;9.93;5.28;;;9.10;59.10;;;;;;2373236;56;21054;-75
2022/04/28 01:47:33;;;;;;;9.27;6.10;;;9.10;59.10;;;;;;2373815;56;21054;-74
2022/04/28 01:50:01;;;;;;;19.37;5.75;;;9.00;59.10;;;;;;2373159;56;21352;-76
2022/04/28 01:58:05;;;;;;;13.88;5.95;;;9.00;59.20;;;;;;2309045;57;28259;-73
2022/04/28 02:00:33;;;;;;;10.23;5.07;;;8.30;62.40;;;;;;2347071;57;21041;-76
2022/04/28 02:03:01;;;;;;;14.25;4.97;;;8.70;61.70;;;;;;2346885;57;21128;-76
2022/04/28 02:05:29;;;;;;;14.52;6.00;;;8.70;60.90;;;;;;2347113;57;21057;-75
2022/04/28 02:07:56;;;;;;;13.27;5.68;;;8.80;60.40;;;;;;2347375;57;21046;-76
2022/04/28 02:10:23;;;;;;;12.52;5.22;;;8.80;60.10;;;;;;2347654;57;21057;-75
2022/04/28 02:12:51;;;;;;;9.38;5.40;;;8.80;59.90;;;;;;2594542;53;21599;-75
2022/04/28 02:15:18;;;;;;;13.88;4.70;;;8.80;59.90;;;;;;2347030;57;22152;-74
2022/04/28 02:17:45;;;;;;;12.25;5.65;;;8.80;59.90;;;;;;2593371;52;21061;-74
2022/04/28 02:20:13;;;;;;;10.40;5.93;;;8.70;59.50;;;;;;2347444;57;21208;-75
2022/04/28 02:22:40;;;;;;;11.90;6.25;;;8.70;59.80;;;;;;2345630;57;21010;-74
2022/04/28 02:25:09;;;;;;;10.45;5.40;;;8.70;59.80;;;;;;2594752;53;21106;-75
2022/04/28 02:27:36;;;;;;;13.73;5.75;;;8.60;59.80;;;;;;2347562;57;21038;-74
2022/04/28 02:30:06;;;;;;;15.90;6.07;;;8.70;59.90;;;;;;2595260;53;21113;-74
2022/04/28 02:35:20;;;;;;;11.88;5.70;;;8.60;59.90;;;;;;2594198;52;21030;-75
2022/04/28 02:37:47;;;;;;;11.40;5.43;;;8.60;59.90;;;;;;2347835;57;21174;-74
2022/04/28 02:40:16;;;;;;;10.82;5.55;;;8.50;59.90;;;;;;2347497;57;21529;-75
2022/04/28 02:42:43;;;;;;;14.13;5.70;;;8.50;60.00;;;;;;2595236;52;21033;-74
2022/04/28 02:45:11;;;;;;;11.18;5.25;;;8.50;61.10;;;;;;2347595;57;21133;-74
2022/04/28 02:50:15;;;;;;;15.80;6.85;;;8.40;60.70;;;;;;2355027;57;22161;-77
2022/04/28 02:52:42;;;;;;;11.10;5.20;;;8.40;60.80;;;;;;2347351;57;21108;-75
2022/04/28 02:55:10;;;;;;;13.43;5.80;;;8.30;60.70;;;;;;2347592;57;21045;-77
2022/04/28 02:57:37;;;;;;;10.60;5.62;;;8.30;60.70;;;;;;2369338;56;21114;-75
2022/04/28 03:00:07;;;;;;;11.50;4.97;;;8.30;61.10;;;;;;2375089;56;21047;-75
2022/04/28 03:02:35;;;;;;;11.75;5.90;;;8.20;61.10;;;;;;2375355;56;21050;-76
2022/04/28 03:05:04;;;;;;;14.80;6.07;;;8.20;61.30;;;;;;2374572;56;21118;-76
2022/04/28 03:15:54;;;;;;;13.48;7.37;;;8.10;61.30;;;;;;2333688;57;27825;-73
2022/04/28 03:18:21;;;;;;;8.95;6.47;;;7.50;63.90;;;;;;2347369;57;21588;-75
2022/04/28 03:23:25;;;;;;;8.98;5.70;;;7.90;62.30;;;;;;2356142;57;22121;-74
2022/04/28 03:25:52;;;;;;;10.55;5.82;;;8.00;61.90;;;;;;2348855;56;21054;-76
2022/04/28 03:28:21;;;;;;;11.55;5.28;;;8.00;61.70;;;;;;2375303;56;21609;-76
2022/04/28 03:30:48;;;;;;;11.80;5.97;;;8.00;61.70;;;;;;2374360;56;21105;-75
2022/04/28 03:33:16;;;;;;;10.93;6.05;;;8.00;61.50;;;;;;2374658;56;21141;-77
2022/04/28 03:35:44;;;;;;;13.13;5.97;;;8.00;61.50;;;;;;2373276;56;21110;-76
2022/04/28 03:38:12;;;;;;;11.40;5.95;;;7.90;61.30;;;;;;2374088;56;21091;-75
2022/04/28 03:40:39;;;;;;;10.95;5.62;;;7.90;61.30;;;;;;2374222;56;21055;-75
2022/04/28 03:43:06;;;;;;;11.45;6.43;;;7.90;61.20;;;;;;2373612;56;21118;-76
2022/04/28 03:45:34;;;;;;;10.48;5.70;;;7.90;61.30;;;;;;2374001;56;21594;-73
2022/04/28 03:48:03;;;;;;;13.10;6.47;;;7.90;61.30;;;;;;2374512;56;21050;-74
2022/04/28 03:50:31;;;;;;;9.27;5.82;;;7.90;61.10;;;;;;2374761;56;21051;-74
2022/04/28 03:52:59;;;;;;;15.05;6.57;;;7.90;61.00;;;;;;2374553;56;21039;-74
2022/04/28 03:55:27;;;;;;;12.37;6.57;;;7.80;60.90;;;;;;2374403;56;21307;-74
2022/04/28 03:57:54;;;;;;;10.73;5.57;;;7.80;60.90;;;;;;2627752;52;21042;-73
2022/04/28 04:00:22;;;;;;;12.02;6.55;;;7.80;61.10;;;;;;2374973;56;21041;-74
2022/04/28 04:02:50;;;;;;;12.88;5.87;;;7.70;61.30;;;;;;2374128;56;21181;-74
2022/04/28 04:05:17;;;;;;;12.70;6.50;;;7.70;61.40;;;;;;2374303;56;21074;-76
2022/04/28 04:07:44;;;;;;;12.68;6.62;;;7.70;61.40;;;;;;2373294;56;21525;-75
2022/04/28 04:10:13;;;;;;;13.40;5.72;;;7.70;61.60;;;;;;2373530;56;21051;-75
2022/04/28 04:12:41;;;;;;;16.95;6.57;;;7.70;61.70;;;;;;2374479;56;21629;-75
2022/04/28 04:15:09;;;;;;;9.93;5.78;;;7.70;61.90;;;;;;2374297;56;21042;-74
2022/04/28 04:17:45;;;;;;;13.62;7.20;;;7.70;62.00;;;;;;2373916;56;21051;-73
2022/04/28 04:20:13;;;;;;;12.80;6.75;;;7.60;62.10;;;;;;2374396;56;21043;-74
2022/04/28 04:22:42;;;;;;;12.07;6.47;;;7.60;62.10;;;;;;2373355;56;21098;-73
2022/04/28 04:25:09;;;;;;;12.77;6.85;;;7.60;62.40;;;;;;2372639;56;21046;-73
2022/04/28 04:27:37;;;;;;;13.13;7.47;;;7.60;62.50;;;;;;2374030;56;21051;-74
2022/04/28 04:32:53;;;;;;;14.68;7.55;;;7.60;62.70;;;;;;2627961;52;21116;-74
2022/04/28 04:35:21;;;;;;;16.05;7.75;;;7.60;62.90;;;;;;2614869;51;71717;-81
2022/04/28 04:37:49;;;;;;;11.57;7.70;;;7.60;62.90;;;;;;2278592;59;21190;-84
2022/04/28 04:40:16;;;;;;;16.00;8.02;;;7.60;62.90;;;;;;2510286;55;21168;-83
2022/04/28 04:42:43;;;;;;;15.68;7.45;;;7.70;63.20;;;;;;2279727;59;21534;-83
2022/04/28 04:45:11;;;;;;;20.23;9.10;;;7.70;63.20;;;;;;2511263;55;21068;-83
2022/04/28 04:47:38;;;;;;;19.10;9.30;;;7.70;63.30;;;;;;2509981;55;21096;-83
2022/04/28 04:50:08;;;;;;;21.58;9.50;;;7.70;63.60;;;;;;2278604;59;21143;-83
2022/04/28 04:52:36;;;;;;;17.48;9.40;;;7.70;63.70;;;;;;2510105;55;21105;-83
2022/04/28 04:55:04;;;;;;;19.48;10.30;;;7.70;63.80;;;;;;2278556;59;21137;-83
2022/04/28 04:57:31;;;;;;;26.70;8.90;;;7.80;63.90;;;;;;2278221;59;21580;-83
2022/04/28 04:59:59;;;;;;;18.27;8.48;;;7.80;64.30;;;;;;2278013;59;21124;-83
2022/04/28 05:02:26;;;;;;;22.23;10.20;;;7.80;64.60;;;;;;2509577;55;21057;-83
2022/04/28 05:04:53;;;;;;;19.98;10.07;;;7.80;65.40;;;;;;2509176;55;21068;-82
2022/04/28 05:07:20;;;;;;;21.75;10.05;;;7.90;65.00;;;;;;2508873;55;21097;-84
2022/04/28 05:09:47;;;;;;;22.62;10.98;;;7.90;65.50;;;;;;2278096;59;21133;-82
2022/04/28 05:12:15;;;;;;;23.05;9.80;;;8.00;65.70;;;;;;2509122;55;21701;-83
2022/04/28 05:14:42;;;;;;;21.50;10.98;;;8.00;65.70;;;;;;2277644;59;21092;-83
2022/04/28 05:17:09;;;;;;;22.52;10.50;;;8.00;65.60;;;;;;2508986;55;21088;-83
2022/04/28 05:19:36;;;;;;;22.40;11.05;;;8.00;66.90;;;;;;2277329;59;21108;-83
2022/04/28 05:22:04;;;;;;;22.30;10.57;;;8.10;66.30;;;;;;2277255;59;21193;-83
2022/04/28 05:24:31;;;;;;;20.23;11.65;;;8.10;66.50;;;;;;2277626;59;21073;-83
2022/04/28 05:26:58;;;;;;;25.20;12.90;;;8.20;66.70;;;;;;2508710;55;21088;-79
2022/04/28 05:29:25;;;;;;;29.30;12.65;;;8.30;66.70;;;;;;2507688;55;21133;-85
2022/04/28 05:31:52;;;;;;;22.83;12.32;;;8.30;66.60;;;;;;2509370;55;21120;-84
2022/04/28 05:34:20;;;;;;;28.73;12.23;;;8.30;66.80;;;;;;2278058;59;21533;-84
2022/04/28 05:36:48;;;;;;;21.77;11.20;;;8.40;66.90;;;;;;2277445;59;21994;-84
2022/04/28 05:39:16;;;;;;;29.00;13.30;;;8.40;66.80;;;;;;2509654;55;21168;-84
2022/04/28 05:41:44;;;;;;;23.23;11.73;;;8.50;66.90;;;;;;2509215;55;21109;-84
2022/04/28 05:46:57;;;;;;;28.62;13.07;;;8.60;66.90;;;;;;2277610;59;21541;-84
2022/04/28 05:49:25;;;;;;;29.73;12.15;;;8.60;66.70;;;;;;2278316;59;21096;-84
2022/04/28 05:51:52;;;;;;;32.58;11.90;;;8.60;66.80;;;;;;2510059;55;21065;-84
2022/04/28 05:56:55;;;;;;;28.05;14.50;;;8.70;67.00;;;;;;2321607;57;27921;-74
2022/04/28 05:59:22;;;;;;;23.90;11.07;;;8.50;70.20;;;;;;2347724;57;21600;-75
2022/04/28 06:01:49;;;;;;;37.45;12.13;;;8.70;69.50;;;;;;2347523;57;21512;-74
2022/04/28 06:04:17;;;;;;;21.87;10.23;;;8.80;68.50;;;;;;2347959;57;21105;-75
2022/04/28 06:06:44;;;;;;;28.35;11.82;;;8.90;67.80;;;;;;2347147;57;21030;-76
2022/04/28 06:09:11;;;;;;;24.98;11.23;;;9.00;67.20;;;;;;2347899;57;21109;-74
2022/04/28 06:11:39;;;;;;;23.62;10.85;;;9.10;67.30;;;;;;2346636;57;21054;-75
2022/04/28 06:14:06;;;;;;;28.23;12.07;;;9.10;67.40;;;;;;2594958;53;21081;-75
2022/04/28 06:16:33;;;;;;;24.90;10.57;;;9.20;67.30;;;;;;2346834;57;21137;-76
2022/04/28 06:19:00;;;;;;;24.67;8.93;;;9.20;67.20;;;;;;2346972;57;21092;-73
2022/04/28 06:21:28;;;;;;;20.25;9.07;;;9.20;67.10;;;;;;2347162;57;21201;-73
2022/04/28 06:23:55;;;;;;;18.77;9.30;;;9.30;67.40;;;;;;2346469;57;21097;-73
2022/04/28 06:28:58;;;;;;;14.45;6.85;;;9.40;66.90;;;;;;2328649;57;22091;-73
2022/04/28 06:31:26;;;;;;;15.68;7.60;;;9.40;66.80;;;;;;2347115;57;21029;-75
2022/04/28 06:33:53;;;;;;;18.40;7.72;;;9.50;66.80;;;;;;2347026;57;21048;-75
2022/04/28 06:36:20;;;;;;;15.00;7.15;;;9.50;66.90;;;;;;2346824;57;21076;-75
2022/04/28 06:38:47;;;;;;;13.65;6.40;;;9.60;67.00;;;;;;2594109;53;21594;-74
2022/04/28 06:41:15;;;;;;;12.18;7.18;;;9.60;67.20;;;;;;2346129;57;21690;-74
2022/04/28 06:43:42;;;;;;;13.23;5.87;;;9.60;67.40;;;;;;2345950;57;21638;-75
2022/04/28 06:46:12;;;;;;;10.85;6.43;;;9.70;67.60;;;;;;2345707;57;21052;-75
2022/04/28 06:48:40;;;;;;;13.32;5.32;;;9.70;67.50;;;;;;2593610;52;21088;-75
2022/04/28 06:51:07;;;;;;;14.65;5.30;;;9.80;67.30;;;;;;2346419;57;21462;-75
2022/04/28 06:53:34;;;;;;;13.27;6.10;;;9.90;67.30;;;;;;2345628;57;21538;-75
2022/04/28 06:56:02;;;;;;;8.18;4.75;;;9.90;67.00;;;;;;2345707;57;21053;-74
2022/04/28 06:58:29;;;;;;;12.80;6.30;;;10.00;67.10;;;;;;2346126;57;21107;-73
2022/04/28 07:00:57;;;;;;;12.88;5.20;;;10.10;66.10;;;;;;2346258;57;21032;-73
2022/04/28 07:03:25;;;;;;;18.08;5.82;;;10.10;66.40;;;;;;2593185;53;21040;-74
2022/04/28 07:05:53;;;;;;;20.05;5.65;;;10.20;66.30;;;;;;2345148;57;21092;-74
2022/04/28 07:08:20;;;;;;;12.07;5.70;;;10.20;65.30;;;;;;2346161;57;21112;-73
2022/04/28 07:10:48;;;;;;;11.20;5.75;;;10.30;65.80;;;;;;2346110;57;21166;-73
2022/04/28 07:13:15;;;;;;;11.68;5.20;;;10.30;65.80;;;;;;2346456;57;21534;-73
2022/04/28 07:15:43;;;;;;;8.85;4.22;;;10.30;65.80;;;;;;2346713;57;21259;-74
2022/04/28 07:18:11;;;;;;;9.95;4.57;;;10.40;65.10;;;;;;2593985;52;21108;-75
2022/04/28 07:20:39;;;;;;;10.65;5.45;;;10.50;65.00;;;;;;2346724;57;21057;-76
2022/04/28 07:23:06;;;;;;;18.20;6.00;;;10.50;64.60;;;;;;2594181;53;21036;-74
2022/04/28 07:25:34;;;;;;;12.80;4.97;;;10.50;64.70;;;;;;2346268;57;21060;-74
2022/04/28 07:28:01;;;;;;;9.85;4.05;;;10.60;64.50;;;;;;2345063;57;21543;-75
2022/04/28 07:30:28;;;;;;;11.82;4.57;;;10.60;63.90;;;;;;2346393;57;21072;-74
2022/04/28 07:32:55;;;;;;;12.98;5.28;;;10.60;63.60;;;;;;2346793;57;21041;-74
2022/04/28 07:35:24;;;;;;;10.40;5.22;;;10.70;63.10;;;;;;2346332;57;21561;-75
2022/04/28 07:37:52;;;;;;;14.10;6.43;;;10.90;62.90;;;;;;2346476;57;21107;-75
2022/04/28 07:40:19;;;;;;;13.02;6.32;;;10.90;62.70;;;;;;2345888;57;21587;-75
2022/04/28 07:42:46;;;;;;;18.65;6.68;;;11.00;62.60;;;;;;2344874;57;21120;-73
2022/04/28 07:45:14;;;;;;;15.40;6.40;;;11.00;62.90;;;;;;2591977;52;21029;-71
2022/04/28 07:47:41;;;;;;;12.65;5.95;;;11.10;62.90;;;;;;2345848;57;21044;-75
2022/04/28 07:50:10;;;;;;;24.50;8.10;;;11.20;62.70;;;;;;2345389;57;21028;-73
2022/04/28 07:52:38;;;;;;;14.70;7.15;;;11.20;62.30;;;;;;2345768;57;21083;-73
2022/04/28 07:55:08;;;;;;;11.80;6.30;;;11.30;61.80;;;;;;2345554;57;21258;-74
2022/04/28 07:57:35;;;;;;;18.42;6.55;;;11.30;62.10;;;;;;2345654;57;21123;-73
2022/04/28 08:02:38;;;;;;;13.60;7.25;;;11.40;62.00;;;;;;2335933;57;27817;-73
2022/04/28 08:05:07;;;;;;;13.68;6.18;;;11.60;62.10;;;;;;2347702;57;21041;-73
2022/04/28 08:07:34;;;;;;;11.77;5.55;;;11.70;61.10;;;;;;2367466;56;21126;-74
2022/04/28 08:10:03;;;;;;;11.68;5.90;;;11.80;60.00;;;;;;2374336;56;21350;-73
2022/04/28 08:12:31;;;;;;;12.68;5.90;;;11.90;59.50;;;;;;2374086;56;21165;-73
2022/04/28 08:14:58;;;;;;;15.00;7.12;;;11.90;59.40;;;;;;2374569;56;21146;-73
2022/04/28 08:17:26;;;;;;;16.17;7.75;;;12.00;59.50;;;;;;2374259;56;21586;-73
2022/04/28 08:19:53;;;;;;;14.13;7.90;;;11.90;59.10;;;;;;2374487;56;21055;-73
2022/04/28 08:22:20;;;;;;;10.00;6.10;;;12.00;58.90;;;;;;2374593;56;21043;-73
2022/04/28 08:24:47;;;;;;;16.33;8.10;;;12.00;58.70;;;;;;2374462;56;21126;-75
2022/04/28 08:27:15;;;;;;;15.40;7.05;;;12.10;58.60;;;;;;2372355;56;22060;-75
2022/04/28 08:29:42;;;;;;;17.23;7.75;;;12.20;58.50;;;;;;2374488;56;21051;-76
2022/04/28 08:32:10;;;;;;;16.70;8.30;;;12.20;58.70;;;;;;2374394;56;21095;-76
2022/04/28 08:34:37;;;;;;;14.70;7.87;;;12.20;58.60;;;;;;2374256;56;21154;-73
2022/04/28 08:37:04;;;;;;;12.82;6.78;;;12.20;59.30;;;;;;2373971;56;21035;-73
2022/04/28 08:39:31;;;;;;;15.43;7.22;;;12.20;58.90;;;;;;2374691;56;21110;-73
2022/04/28 08:42:00;;;;;;;15.13;7.12;;;12.20;58.80;;;;;;2374824;56;21535;-73
2022/04/28 08:44:28;;;;;;;16.20;6.78;;;12.20;58.70;;;;;;2627699;52;21092;-73
2022/04/28 08:46:56;;;;;;;18.40;7.53;;;12.30;58.40;;;;;;2373734;56;21055;-74
2022/04/28 08:49:25;;;;;;;16.35;7.28;;;12.40;58.30;;;;;;2374901;56;21110;-72
2022/04/28 08:51:54;;;;;;;14.18;7.20;;;12.50;58.00;;;;;;2628263;52;21086;-73
2022/04/28 08:54:23;;;;;;;12.93;7.40;;;12.50;58.20;;;;;;2374293;56;21055;-76
2022/04/28 08:56:52;;;;;;;12.85;7.65;;;12.50;57.90;;;;;;2374859;56;21075;-75
2022/04/28 08:59:20;;;;;;;16.62;8.13;;;12.50;58.00;;;;;;2374891;56;21055;-76
2022/04/28 09:01:48;;;;;;;11.68;7.53;;;12.60;57.80;;;;;;2374370;56;21174;-75
2022/04/28 09:04:15;;;;;;;12.77;7.07;;;12.70;57.90;;;;;;2375007;56;21031;-73
2022/04/28 09:06:45;;;;;;;13.25;7.07;;;12.70;57.50;;;;;;2628365;52;21055;-75
2022/04/28 09:09:15;;;;;;;20.10;8.43;;;12.70;57.10;;;;;;2375601;56;21047;-75
2022/04/28 09:11:43;;;;;;;15.40;7.85;;;12.70;57.00;;;;;;2629032;52;21526;-75
2022/04/28 09:14:13;;;;;;;24.60;8.65;;;12.80;56.80;;;;;;2374183;56;21055;-76
2022/04/28 09:19:22;;;;;;;15.35;7.57;;;12.90;56.90;;;;;;2354518;57;22620;-73
2022/04/28 09:21:50;;;;;;;17.90;7.60;;;12.90;56.40;;;;;;2347708;57;21663;-72
2022/04/28 09:24:19;;;;;;;10.23;7.28;;;13.00;56.40;;;;;;2347165;57;21049;-72
2022/04/28 09:26:48;;;;;;;19.48;8.55;;;13.00;56.10;;;;;;2358902;56;21129;-72
2022/04/28 09:29:17;;;;;;;13.82;7.12;;;13.10;56.20;;;;;;2374809;56;21126;-73
2022/04/28 09:31:45;;;;;;;17.50;8.32;;;13.20;56.40;;;;;;2627506;52;21558;-75
2022/04/28 09:34:14;;;;;;;16.05;7.35;;;13.20;55.90;;;;;;2374682;56;21079;-74
2022/04/28 09:36:43;;;;;;;14.07;7.72;;;13.30;56.00;;;;;;2373598;56;21043;-76
2022/04/28 09:42:29;;;;;;;15.48;7.72;;;13.30;55.80;;;;;;2374733;56;21051;-75
2022/04/28 09:45:13;;;;;;;16.17;7.95;;;13.30;56.00;;;;;;2374835;56;21094;-73
2022/04/28 09:47:40;;;;;;;17.02;8.68;;;13.50;55.80;;;;;;2374569;56;21141;-74
2022/04/28 09:50:18;;;;;;;17.37;8.52;;;13.50;55.60;;;;;;2374886;56;21035;-73
2022/04/28 09:52:52;;;;;;;15.65;8.68;;;13.50;55.40;;;;;;2375075;56;21046;-73
2022/04/28 09:55:21;;;;;;;12.02;7.50;;;13.60;55.10;;;;;;2374698;56;21090;-73
2022/04/28 09:57:48;;;;;;;10.85;7.25;;;13.70;54.90;;;;;;2374741;56;21035;-73
2022/04/28 10:00:17;;;;;;;12.37;6.82;;;13.80;54.60;;;;;;2375096;56;21063;-73
2022/04/28 10:02:45;;;;;;;14.45;8.38;;;13.90;54.50;;;;;;2374984;56;21038;-73
2022/04/28 10:05:14;;;;;;;16.37;9.05;;;14.00;53.90;;;;;;2374843;56;21043;-73
2022/04/28 10:07:42;;;;;;;13.38;7.35;;;14.00;53.50;;;;;;2374692;56;21129;-74
2022/04/28 10:10:09;;;;;;;20.55;8.93;;;14.10;53.40;;;;;;2374921;56;21419;-73
2022/04/28 10:12:39;;;;;;;14.87;8.50;;;14.20;53.40;;;;;;2374809;56;21118;-73
2022/04/28 10:15:11;;;;;;;15.10;7.03;;;14.30;53.20;;;;;;2375095;56;21126;-74
2022/04/28 10:17:45;;;;;;;15.90;8.13;;;14.40;53.20;;;;;;2374543;56;21046;-73
2022/04/28 10:20:19;;;;;;;13.43;8.40;;;14.50;52.30;;;;;;2374727;56;21039;-74
2022/04/28 10:22:49;;;;;;;13.77;8.40;;;14.50;52.10;;;;;;2375020;56;21052;-74
2022/04/28 10:33:46;;;;;;;13.07;7.10;;;14.90;52.50;;;;;;2374296;56;21022;-73
2022/04/28 10:36:19;;;;;;;14.20;7.47;;;14.90;52.40;;;;;;2372691;56;21106;-74
2022/04/28 10:39:07;;;;;;;13.52;6.72;;;15.00;52.50;;;;;;2627451;52;21557;-74
2022/04/28 10:41:35;;;;;;;7.65;6.03;;;15.10;51.50;;;;;;2374152;56;21094;-73
2022/04/28 10:44:16;;;;;;;13.93;6.20;;;15.20;51.90;;;;;;2374129;56;21042;-74
2022/04/28 10:46:59;;;;;;;15.00;8.20;;;15.30;52.80;;;;;;2627150;52;21039;-73
2022/04/28 10:49:26;;;;;;;19.30;7.93;;;15.40;51.80;;;;;;2374513;56;21046;-73
2022/04/28 10:51:58;;;;;;;14.30;7.82;;;15.50;52.10;;;;;;2374006;56;21067;-74
2022/04/28 10:54:26;;;;;;;11.48;6.12;;;15.60;51.50;;;;;;2374012;56;21035;-74
2022/04/28 10:56:56;;;;;;;16.80;5.97;;;15.80;51.40;;;;;;2373542;56;21094;-74
2022/04/28 10:59:32;;;;;;;9.15;5.60;;;15.80;51.20;;;;;;2374085;56;21043;-74
2022/04/28 11:02:42;;;;;;;12.13;5.80;;;15.90;51.10;;;;;;2374404;56;21105;-74
2022/04/28 11:05:29;;;;;;;11.10;6.00;;;16.10;50.80;;;;;;2374150;56;21042;-74
2022/04/28 11:07:59;;;;;;;11.12;6.78;;;16.20;50.70;;;;;;2374108;56;21071;-74
2022/04/28 11:10:27;;;;;;;10.25;6.90;;;16.30;50.20;;;;;;2374307;56;21178;-74
2022/04/28 11:12:55;;;;;;;12.18;6.87;;;16.40;50.30;;;;;;2374013;56;21561;-74
2022/04/28 11:15:25;;;;;;;11.27;6.50;;;16.50;50.00;;;;;;2373752;56;21050;-73
2022/04/28 11:17:52;;;;;;;13.23;7.28;;;16.60;49.80;;;;;;2373993;56;21122;-74
2022/04/28 11:20:21;;;;;;;8.27;6.10;;;16.70;49.80;;;;;;2374347;56;21062;-75
2022/04/28 11:22:52;;;;;;;9.65;6.62;;;16.80;48.60;;;;;;2374247;56;21142;-73
2022/04/28 11:25:20;;;;;;;10.98;6.35;;;16.90;47.80;;;;;;2626788;52;21105;-74
2022/04/28 11:27:51;;;;;;;15.70;6.15;;;17.00;46.70;;;;;;2373818;56;21165;-74
2022/04/28 11:30:21;;;;;;;12.10;6.10;;;17.10;45.50;;;;;;2374068;56;21562;-74
2022/04/28 11:32:51;;;;;;;13.98;5.72;;;17.20;46.00;;;;;;2374050;56;21133;-74
2022/04/28 11:35:19;;;;;;;10.57;6.10;;;17.30;46.80;;;;;;2626986;52;21110;-74
2022/04/28 11:37:48;;;;;;;10.75;5.90;;;17.50;47.00;;;;;;2373409;56;21039;-74
2022/04/28 11:40:16;;;;;;;14.45;6.40;;;17.60;46.50;;;;;;2374467;56;21506;-74
2022/04/28 11:42:45;;;;;;;10.20;6.65;;;17.70;46.50;;;;;;2374047;56;21027;-75
2022/04/28 11:45:15;;;;;;;15.07;6.87;;;17.90;45.90;;;;;;2374458;56;21031;-74
2022/04/28 11:47:45;;;;;;;10.52;5.90;;;18.00;45.70;;;;;;2373871;56;21055;-75
2022/04/28 11:53:01;;;;;;;10.57;6.60;;;18.00;46.30;;;;;;2355478;57;23234;-73
2022/04/28 11:55:30;;;;;;;8.07;5.70;;;17.70;44.80;;;;;;2347541;57;21046;-73
2022/04/28 11:57:57;;;;;;;13.15;7.43;;;17.60;44.60;;;;;;2626487;52;21113;-74
2022/04/28 12:00:25;;;;;;;11.38;6.20;;;17.60;44.80;;;;;;2375312;56;21043;-73
2022/04/28 12:02:54;;;;;;;12.05;5.97;;;17.60;45.20;;;;;;2628770;52;21043;-73
2022/04/28 12:05:23;;;;;;;12.48;6.25;;;17.70;46.50;;;;;;2375051;56;21114;-74
2022/04/28 12:07:52;;;;;;;10.40;5.85;;;17.80;45.60;;;;;;2374860;56;21051;-73
2022/04/28 12:16:07;;;;;;;8.20;5.40;;;17.70;44.40;;;;;;2374939;56;21477;-73
2022/04/28 12:21:21;;;;;;;13.62;6.03;;;17.80;43.70;;;;;;2373822;56;21007;-73
2022/04/28 12:23:51;;;;;;;8.52;5.78;;;17.90;43.40;;;;;;2374488;56;21117;-75
2022/04/28 12:26:21;;;;;;;7.93;4.82;;;17.90;43.30;;;;;;2626897;52;21317;-76
2022/04/28 12:28:48;;;;;;;8.93;5.45;;;18.00;43.70;;;;;;2374544;56;21178;-74
2022/04/28 12:31:27;;;;;;;12.55;5.07;;;18.20;43.70;;;;;;2627612;52;21031;-73
2022/04/28 12:33:55;;;;;;;11.30;5.60;;;18.30;42.50;;;;;;2374581;56;21039;-73
2022/04/28 12:36:22;;;;;;;8.27;5.05;;;18.50;42.70;;;;;;2373341;56;21137;-73
2022/04/28 12:38:56;;;;;;;10.57;6.10;;;18.60;42.90;;;;;;2374511;56;21039;-73
2022/04/28 12:41:24;;;;;;;12.70;5.82;;;18.70;41.70;;;;;;2375218;56;21039;-73
2022/04/28 12:43:56;;;;;;;5.45;4.28;;;18.60;41.30;;;;;;2374675;56;21046;-73
2022/04/28 12:49:12;;;;;;;8.80;4.37;;;18.50;42.00;;;;;;2353917;57;22101;-74
2022/04/28 12:51:44;;;;;;;7.25;4.60;;;18.60;42.50;;;;;;2347110;57;21141;-74
2022/04/28 12:54:13;;;;;;;12.48;4.93;;;18.60;42.30;;;;;;2347550;57;21054;-73
2022/04/28 12:56:43;;;;;;;8.23;4.97;;;18.70;43.10;;;;;;2357535;56;21095;-73
2022/04/28 12:59:13;;;;;;;8.65;4.90;;;18.60;43.70;;;;;;2374355;56;21121;-73
2022/04/28 13:01:42;;;;;;;10.32;5.60;;;18.50;44.20;;;;;;2628792;52;21130;-73
2022/04/28 13:04:12;;;;;;;9.02;4.97;;;18.60;44.00;;;;;;2374764;56;21046;-73
2022/04/28 13:06:41;;;;;;;8.93;4.68;;;18.70;44.00;;;;;;2373257;56;21593;-74
2022/04/28 13:09:09;;;;;;;6.82;4.18;;;18.90;43.00;;;;;;2628229;52;21197;-73
2022/04/28 13:11:38;;;;;;;10.30;3.97;;;19.00;42.00;;;;;;2374973;56;21094;-73
2022/04/28 13:14:08;;;;;;;6.87;4.28;;;19.10;42.60;;;;;;2628369;52;21134;-72
2022/04/28 13:16:36;;;;;;;8.13;4.85;;;19.10;41.10;;;;;;2374401;56;21051;-75
2022/04/28 13:19:05;;;;;;;9.30;4.68;;;19.10;41.20;;;;;;2374392;56;21752;-76
2022/04/28 13:21:32;;;;;;;6.62;4.57;;;19.00;41.20;;;;;;2374202;56;21031;-74
2022/04/28 13:24:00;;;;;;;7.60;4.53;;;19.00;41.50;;;;;;2374303;56;21633;-74
2022/04/28 13:26:29;;;;;;;8.77;4.05;;;19.20;41.80;;;;;;2373743;56;21062;-74
2022/04/28 13:28:58;;;;;;;7.62;4.55;;;19.30;41.70;;;;;;2374270;56;21130;-73
2022/04/28 13:31:25;;;;;;;9.85;5.00;;;19.30;41.80;;;;;;2375066;56;21047;-73
2022/04/28 13:33:54;;;;;;;13.38;5.00;;;19.30;41.20;;;;;;2374791;56;21085;-75
2022/04/28 13:36:22;;;;;;;11.88;4.95;;;19.40;41.60;;;;;;2374015;56;21019;-75
2022/04/28 13:38:49;;;;;;;9.10;5.37;;;19.40;42.00;;;;;;2374340;56;21098;-77
2022/04/28 13:41:19;;;;;;;11.35;5.37;;;19.40;41.90;;;;;;2374677;56;21618;-75
2022/04/28 13:43:46;;;;;;;8.77;5.40;;;19.30;42.00;;;;;;2627937;52;21027;-75
2022/04/28 13:46:17;;;;;;;10.40;6.18;;;19.20;42.30;;;;;;2372375;56;21051;-74
2022/04/28 13:48:44;;;;;;;6.32;4.32;;;19.00;42.50;;;;;;2374277;56;21315;-76
2022/04/28 13:51:11;;;;;;;9.90;4.95;;;19.00;42.60;;;;;;2374796;56;21043;-77
2022/04/28 13:53:39;;;;;;;6.40;4.68;;;18.90;43.20;;;;;;2374926;56;21106;-76
2022/04/28 13:56:07;;;;;;;7.10;5.18;;;18.90;43.10;;;;;;2374143;56;21042;-76
2022/04/28 13:58:36;;;;;;;7.15;4.68;;;18.90;42.50;;;;;;2374526;56;21050;-76